sensor_id;sensor_type;location;lat;lon;timestamp;pressure;altitude;pressure_sealevel;temperature;humidity
6216;BME280;3141;49.234;9.326;2023-05-14T00:00:23;99706.47;;;14.98;78.68
6216;BME280;3141;49.234;9.326;2023-05-14T00:01:24;99703.16;;;14.96;79.12
6216;BME280;3141;49.234;9.326;2023-05-14T00:02:25;99700.06;;;14.93;79.61
6216;BME280;3141;49.234;9.326;2023-05-14T00:03:26;99708.13;;;14.85;79.52
6216;BME280;3141;49.234;9.326;2023-05-14T00:04:27;99712.06;;;14.74;79.97
6216;BME280;3141;49.234;9.326;2023-05-14T00:05:28;99715.84;;;14.80;79.38
6216;BME280;3141;49.234;9.326;2023-05-14T00:06:29;99713.00;;;14.81;79.02
6216;BME280;3141;49.234;9.326;2023-05-14T00:07:30;99704.53;;;14.78;79.66
6216;BME280;3141;49.234;9.326;2023-05-14T00:08:31;99711.97;;;14.82;79.41
6216;BME280;3141;49.234;9.326;2023-05-14T00:09:32;99716.81;;;14.79;79.65
6216;BME280;3141;49.234;9.326;2023-05-14T00:10:33;99713.09;;;14.73;80.08
6216;BME280;3141;49.234;9.326;2023-05-14T00:11:34;99710.06;;;14.76;79.29
6216;BME280;3141;49.234;9.326;2023-05-14T00:12:36;99701.13;;;14.69;79.78
6216;BME280;3141;49.234;9.326;2023-05-14T00:13:37;99702.31;;;14.67;79.79
6216;BME280;3141;49.234;9.326;2023-05-14T00:14:38;99704.44;;;14.71;80.08
6216;BME280;3141;49.234;9.326;2023-05-14T00:15:39;99703.50;;;14.64;80.50
6216;BME280;3141;49.234;9.326;2023-05-14T00:16:40;99697.34;;;14.64;80.40
6216;BME280;3141;49.234;9.326;2023-05-14T00:17:40;99701.84;;;14.63;80.58
6216;BME280;3141;49.234;9.326;2023-05-14T00:18:42;99701.41;;;14.60;80.62
6216;BME280;3141;49.234;9.326;2023-05-14T00:19:42;99703.13;;;14.53;80.96
6216;BME280;3141;49.234;9.326;2023-05-14T00:20:43;99702.31;;;14.52;81.28
6216;BME280;3141;49.234;9.326;2023-05-14T00:21:45;99703.41;;;14.58;80.94
6216;BME280;3141;49.234;9.326;2023-05-14T00:22:46;99696.09;;;14.60;80.52
6216;BME280;3141;49.234;9.326;2023-05-14T00:23:47;99699.81;;;14.51;80.71
6216;BME280;3141;49.234;9.326;2023-05-14T00:24:48;99693.03;;;14.48;81.48
6216;BME280;3141;49.234;9.326;2023-05-14T00:25:49;99690.53;;;14.47;80.99
6216;BME280;3141;49.234;9.326;2023-05-14T00:26:50;99700.63;;;14.51;80.71
6216;BME280;3141;49.234;9.326;2023-05-14T00:27:51;99696.59;;;14.41;80.60
6216;BME280;3141;49.234;9.326;2023-05-14T00:28:52;99697.66;;;14.32;81.13
6216;BME280;3141;49.234;9.326;2023-05-14T00:29:53;99695.84;;;14.32;81.06
6216;BME280;3141;49.234;9.326;2023-05-14T00:30:53;99693.38;;;14.23;80.94
6216;BME280;3141;49.234;9.326;2023-05-14T00:31:55;99691.44;;;14.17;81.66
6216;BME280;3141;49.234;9.326;2023-05-14T00:32:56;99690.66;;;14.08;81.27
6216;BME280;3141;49.234;9.326;2023-05-14T00:33:57;99683.50;;;14.09;81.43
6216;BME280;3141;49.234;9.326;2023-05-14T00:34:58;99686.66;;;14.12;80.86
6216;BME280;3141;49.234;9.326;2023-05-14T00:35:59;99685.19;;;14.10;80.94
6216;BME280;3141;49.234;9.326;2023-05-14T00:37:00;99686.28;;;14.15;80.59
6216;BME280;3141;49.234;9.326;2023-05-14T00:38:02;99693.28;;;14.16;80.21
6216;BME280;3141;49.234;9.326;2023-05-14T00:39:03;99681.22;;;14.06;80.62
6216;BME280;3141;49.234;9.326;2023-05-14T00:40:04;99681.41;;;14.04;80.62
6216;BME280;3141;49.234;9.326;2023-05-14T00:41:06;99680.75;;;14.02;80.71
6216;BME280;3141;49.234;9.326;2023-05-14T00:42:07;99676.25;;;14.03;80.17
6216;BME280;3141;49.234;9.326;2023-05-14T00:43:08;99671.47;;;13.98;80.22
6216;BME280;3141;49.234;9.326;2023-05-14T00:44:09;99676.25;;;14.03;79.97
6216;BME280;3141;49.234;9.326;2023-05-14T00:45:10;99681.22;;;14.06;80.15
6216;BME280;3141;49.234;9.326;2023-05-14T00:46:11;99674.88;;;14.07;79.93
6216;BME280;3141;49.234;9.326;2023-05-14T00:47:13;99683.22;;;14.04;79.83
6216;BME280;3141;49.234;9.326;2023-05-14T00:48:14;99679.59;;;14.05;79.86
6216;BME280;3141;49.234;9.326;2023-05-14T00:49:16;99681.41;;;14.04;79.75
6216;BME280;3141;49.234;9.326;2023-05-14T00:50:17;99679.44;;;13.98;79.91
6216;BME280;3141;49.234;9.326;2023-05-14T00:51:18;99684.28;;;13.94;80.09
6216;BME280;3141;49.234;9.326;2023-05-14T00:52:20;99684.63;;;13.91;80.57
6216;BME280;3141;49.234;9.326;2023-05-14T00:53:21;99679.50;;;13.90;80.57
6216;BME280;3141;49.234;9.326;2023-05-14T00:54:22;99686.66;;;13.89;80.49
6216;BME280;3141;49.234;9.326;2023-05-14T00:55:24;99677.44;;;13.77;80.36
6216;BME280;3141;49.234;9.326;2023-05-14T00:56:26;99681.59;;;13.72;80.57
6216;BME280;3141;49.234;9.326;2023-05-14T00:57:27;99683.16;;;13.66;80.60
6216;BME280;3141;49.234;9.326;2023-05-14T00:58:28;99681.66;;;13.64;80.54
6216;BME280;3141;49.234;9.326;2023-05-14T00:59:29;99679.88;;;13.56;80.85
6216;BME280;3141;49.234;9.326;2023-05-14T01:00:30;99678.59;;;13.52;81.05
6216;BME280;3141;49.234;9.326;2023-05-14T01:01:31;99678.09;;;13.49;81.31
6216;BME280;3141;49.234;9.326;2023-05-14T01:02:32;99676.97;;;13.43;81.44
6216;BME280;3141;49.234;9.326;2023-05-14T01:03:34;99677.63;;;13.45;81.75
6216;BME280;3141;49.234;9.326;2023-05-14T01:04:36;99671.34;;;13.38;81.87
6216;BME280;3141;49.234;9.326;2023-05-14T01:07:53;99680.59;;;13.50;81.37
6216;BME280;3141;49.234;9.326;2023-05-14T01:08:52;99672.97;;;13.47;81.27
6216;BME280;3141;49.234;9.326;2023-05-14T01:10:10;99670.50;;;13.46;80.89
6216;BME280;3141;49.234;9.326;2023-05-14T01:11:19;99662.53;;;13.46;81.17
6216;BME280;3141;49.234;9.326;2023-05-14T01:15:24;99661.69;;;13.45;81.28
6216;BME280;3141;49.234;9.326;2023-05-14T01:16:26;99669.47;;;13.47;81.17
6216;BME280;3141;49.234;9.326;2023-05-14T01:17:32;99666.03;;;13.38;81.06
6216;BME280;3141;49.234;9.326;2023-05-14T01:18:33;99672.06;;;13.24;81.99
6216;BME280;3141;49.234;9.326;2023-05-14T01:20:39;99661.81;;;13.13;82.07
6216;BME280;3141;49.234;9.326;2023-05-14T01:21:43;99672.78;;;13.10;82.70
6216;BME280;3141;49.234;9.326;2023-05-14T01:22:44;99671.94;;;13.18;82.01
6216;BME280;3141;49.234;9.326;2023-05-14T01:23:45;99670.81;;;13.12;82.17
6216;BME280;3141;49.234;9.326;2023-05-14T01:24:46;99672.50;;;12.97;82.92
6216;BME280;3141;49.234;9.326;2023-05-14T01:25:48;99664.03;;;12.94;83.26
6216;BME280;3141;49.234;9.326;2023-05-14T01:26:49;99664.03;;;13.02;82.98
6216;BME280;3141;49.234;9.326;2023-05-14T01:28:16;99667.13;;;13.13;82.33
6216;BME280;3141;49.234;9.326;2023-05-14T01:29:21;99661.16;;;13.19;81.57
6216;BME280;3141;49.234;9.326;2023-05-14T01:30:42;99664.66;;;13.20;81.39
6216;BME280;3141;49.234;9.326;2023-05-14T01:31:46;99661.81;;;13.13;81.57
6216;BME280;3141;49.234;9.326;2023-05-14T01:32:50;99667.47;;;13.18;81.61
6216;BME280;3141;49.234;9.326;2023-05-14T01:33:56;99662.78;;;13.20;81.47
6216;BME280;3141;49.234;9.326;2023-05-14T01:34:59;99658.88;;;13.08;81.70
6216;BME280;3141;49.234;9.326;2023-05-14T01:36:01;99656.91;;;12.94;82.35
6216;BME280;3141;49.234;9.326;2023-05-14T01:37:03;99657.75;;;12.87;82.93
6216;BME280;3141;49.234;9.326;2023-05-14T01:38:07;99650.81;;;12.86;82.85
6216;BME280;3141;49.234;9.326;2023-05-14T01:39:09;99649.81;;;12.87;82.91
6216;BME280;3141;49.234;9.326;2023-05-14T01:40:11;99650.81;;;12.86;83.10
6216;BME280;3141;49.234;9.326;2023-05-14T01:41:13;99650.94;;;12.92;82.15
6216;BME280;3141;49.234;9.326;2023-05-14T01:42:14;99650.81;;;12.86;82.35
6216;BME280;3141;49.234;9.326;2023-05-14T01:43:15;99647.63;;;12.90;82.01
6216;BME280;3141;49.234;9.326;2023-05-14T01:44:17;99645.16;;;12.80;82.13
6216;BME280;3141;49.234;9.326;2023-05-14T01:45:19;99645.81;;;12.82;81.88
6216;BME280;3141;49.234;9.326;2023-05-14T01:46:21;99655.78;;;12.80;81.75
6216;BME280;3141;49.234;9.326;2023-05-14T01:47:23;99650.16;;;12.84;81.75
6216;BME280;3141;49.234;9.326;2023-05-14T01:48:24;99650.66;;;12.79;81.82
6216;BME280;3141;49.234;9.326;2023-05-14T01:49:25;99647.19;;;12.70;82.08
6216;BME280;3141;49.234;9.326;2023-05-14T01:50:26;99654.66;;;12.67;82.31
6216;BME280;3141;49.234;9.326;2023-05-14T01:51:27;99653.69;;;12.68;82.63
6216;BME280;3141;49.234;9.326;2023-05-14T01:52:28;99656.81;;;12.63;82.96
6216;BME280;3141;49.234;9.326;2023-05-14T01:53:29;99652.38;;;12.56;83.23
6216;BME280;3141;49.234;9.326;2023-05-14T01:54:30;99662.16;;;12.55;83.11
6216;BME280;3141;49.234;9.326;2023-05-14T01:55:31;99667.28;;;12.57;82.65
6216;BME280;3141;49.234;9.326;2023-05-14T01:56:32;99662.31;;;12.54;82.25
6216;BME280;3141;49.234;9.326;2023-05-14T01:57:33;99669.59;;;12.60;81.74
6216;BME280;3141;49.234;9.326;2023-05-14T01:58:34;99668.94;;;12.50;81.72
6216;BME280;3141;49.234;9.326;2023-05-14T01:59:35;99662.66;;;12.43;82.53
6216;BME280;3141;49.234;9.326;2023-05-14T02:00:36;99663.66;;;12.42;82.46
6216;BME280;3141;49.234;9.326;2023-05-14T02:01:38;99664.16;;;12.37;82.75
6216;BME280;3141;49.234;9.326;2023-05-14T02:02:39;99658.53;;;12.32;83.20
6216;BME280;3141;49.234;9.326;2023-05-14T02:03:40;99665.66;;;12.32;83.21
6216;BME280;3141;49.234;9.326;2023-05-14T02:04:42;99658.53;;;12.24;83.46
6216;BME280;3141;49.234;9.326;2023-05-14T02:05:42;99655.88;;;12.24;83.31
6216;BME280;3141;49.234;9.326;2023-05-14T02:06:43;99662.69;;;12.27;83.15
6216;BME280;3141;49.234;9.326;2023-05-14T02:07:44;99660.34;;;12.24;82.93
6216;BME280;3141;49.234;9.326;2023-05-14T02:08:45;99661.53;;;12.29;82.66
6216;BME280;3141;49.234;9.326;2023-05-14T02:09:46;99653.06;;;12.34;82.22
6216;BME280;3141;49.234;9.326;2023-05-14T02:10:47;99656.88;;;12.31;82.53
6216;BME280;3141;49.234;9.326;2023-05-14T02:11:48;99657.88;;;12.30;82.67
6216;BME280;3141;49.234;9.326;2023-05-14T02:12:49;99656.38;;;12.28;82.76
6216;BME280;3141;49.234;9.326;2023-05-14T02:13:50;99658.72;;;12.23;83.37
6216;BME280;3141;49.234;9.326;2023-05-14T02:14:51;99653.91;;;12.18;83.40
6216;BME280;3141;49.234;9.326;2023-05-14T02:15:52;99651.41;;;12.17;83.22
6216;BME280;3141;49.234;9.326;2023-05-14T02:16:53;99656.22;;;12.13;83.70
6216;BME280;3141;49.234;9.326;2023-05-14T02:17:54;99652.06;;;12.19;83.37
6216;BME280;3141;49.234;9.326;2023-05-14T02:18:55;99648.59;;;12.18;83.42
6216;BME280;3141;49.234;9.326;2023-05-14T02:19:55;99646.44;;;12.14;84.23
6216;BME280;3141;49.234;9.326;2023-05-14T02:20:56;99651.75;;;12.06;83.95
6216;BME280;3141;49.234;9.326;2023-05-14T02:21:58;99648.44;;;12.12;83.98
6216;BME280;3141;49.234;9.326;2023-05-14T02:22:59;99657.72;;;12.08;84.15
6216;BME280;3141;49.234;9.326;2023-05-14T02:24:00;99655.38;;;12.05;84.35
6216;BME280;3141;49.234;9.326;2023-05-14T02:25:02;99651.59;;;11.99;84.19
6216;BME280;3141;49.234;9.326;2023-05-14T02:26:03;99653.91;;;12.02;84.19
6216;BME280;3141;49.234;9.326;2023-05-14T02:27:04;99650.75;;;12.07;84.15
6216;BME280;3141;49.234;9.326;2023-05-14T02:28:05;99648.78;;;12.01;83.97
6216;BME280;3141;49.234;9.326;2023-05-14T02:29:07;99652.09;;;12.11;83.43
6216;BME280;3141;49.234;9.326;2023-05-14T02:30:08;99654.41;;;12.14;82.84
6216;BME280;3141;49.234;9.326;2023-05-14T02:31:09;99661.84;;;12.18;82.73
6216;BME280;3141;49.234;9.326;2023-05-14T02:32:10;99656.22;;;12.21;82.59
6216;BME280;3141;49.234;9.326;2023-05-14T02:33:11;99660.84;;;12.27;82.10
6216;BME280;3141;49.234;9.326;2023-05-14T02:34:12;99656.91;;;12.23;82.28
6216;BME280;3141;49.234;9.326;2023-05-14T02:35:13;99661.38;;;12.23;81.75
6216;BME280;3141;49.234;9.326;2023-05-14T02:36:14;99658.38;;;12.26;81.75
6216;BME280;3141;49.234;9.326;2023-05-14T02:37:15;99652.91;;;12.27;81.79
6216;BME280;3141;49.234;9.326;2023-05-14T02:38:16;99660.53;;;12.30;81.86
6216;BME280;3141;49.234;9.326;2023-05-14T02:39:17;99661.69;;;12.28;81.61
6216;BME280;3141;49.234;9.326;2023-05-14T02:40:18;99655.22;;;12.22;82.35
6216;BME280;3141;49.234;9.326;2023-05-14T02:41:19;99658.38;;;12.18;82.46
6216;BME280;3141;49.234;9.326;2023-05-14T02:42:21;99659.19;;;12.18;82.86
6216;BME280;3141;49.234;9.326;2023-05-14T02:43:22;99659.19;;;12.18;83.11
6216;BME280;3141;49.234;9.326;2023-05-14T02:44:23;99660.03;;;12.19;83.49
6216;BME280;3141;49.234;9.326;2023-05-14T02:45:24;99659.56;;;12.23;83.43
6216;BME280;3141;49.234;9.326;2023-05-14T02:46:25;99664.50;;;12.26;83.29
6216;BME280;3141;49.234;9.326;2023-05-14T02:47:26;99661.53;;;12.29;83.23
6216;BME280;3141;49.234;9.326;2023-05-14T02:48:27;99657.06;;;12.30;82.82
6216;BME280;3141;49.234;9.326;2023-05-14T02:49:27;99657.88;;;12.30;82.99
6216;BME280;3141;49.234;9.326;2023-05-14T02:50:28;99655.56;;;12.27;83.02
6216;BME280;3141;49.234;9.326;2023-05-14T02:51:29;99662.34;;;12.30;82.77
6216;BME280;3141;49.234;9.326;2023-05-14T02:52:30;99653.41;;;12.31;82.51
6216;BME280;3141;49.234;9.326;2023-05-14T02:53:31;99657.56;;;12.33;82.77
6216;BME280;3141;49.234;9.326;2023-05-14T02:54:32;99656.72;;;12.33;82.84
6216;BME280;3141;49.234;9.326;2023-05-14T02:55:34;99654.06;;;12.25;83.58
6216;BME280;3141;49.234;9.326;2023-05-14T02:56:35;99656.22;;;12.29;82.83
6216;BME280;3141;49.234;9.326;2023-05-14T02:57:36;99651.25;;;12.26;83.25
6216;BME280;3141;49.234;9.326;2023-05-14T02:58:37;99656.91;;;12.23;83.04
6216;BME280;3141;49.234;9.326;2023-05-14T02:59:38;99644.13;;;12.19;83.11
6216;BME280;3141;49.234;9.326;2023-05-14T03:00:39;99650.28;;;12.11;83.21
6216;BME280;3141;49.234;9.326;2023-05-14T03:01:40;99640.66;;;12.10;83.62
6216;BME280;3141;49.234;9.326;2023-05-14T03:02:41;99647.47;;;12.13;83.25
6216;BME280;3141;49.234;9.326;2023-05-14T03:03:43;99642.34;;;12.11;83.71
6216;BME280;3141;49.234;9.326;2023-05-14T03:04:44;99646.13;;;12.17;83.46
6216;BME280;3141;49.234;9.326;2023-05-14T03:05:45;99644.31;;;12.17;82.60
6216;BME280;3141;49.234;9.326;2023-05-14T03:06:46;99644.28;;;12.25;83.06
6216;BME280;3141;49.234;9.326;2023-05-14T03:07:47;99644.63;;;12.22;82.79
6216;BME280;3141;49.234;9.326;2023-05-14T03:08:48;99637.19;;;12.18;82.67
6216;BME280;3141;49.234;9.326;2023-05-14T03:09:49;99644.81;;;12.13;82.90
6216;BME280;3141;49.234;9.326;2023-05-14T03:10:50;99642.34;;;12.11;83.72
6216;BME280;3141;49.234;9.326;2023-05-14T03:11:51;99650.09;;;12.21;83.25
6216;BME280;3141;49.234;9.326;2023-05-14T03:12:52;99649.44;;;12.19;83.51
6216;BME280;3141;49.234;9.326;2023-05-14T03:13:53;99653.91;;;12.18;83.13
6216;BME280;3141;49.234;9.326;2023-05-14T03:14:54;99643.28;;;12.18;83.11
6216;BME280;3141;49.234;9.326;2023-05-14T03:15:55;99650.06;;;12.29;82.27
6216;BME280;3141;49.234;9.326;2023-05-14T03:16:56;99652.09;;;12.27;82.36
6216;BME280;3141;49.234;9.326;2023-05-14T03:17:57;99653.59;;;12.21;82.69
6216;BME280;3141;49.234;9.326;2023-05-14T03:18:58;99655.22;;;12.22;82.71
6216;BME280;3141;49.234;9.326;2023-05-14T03:19:59;99654.91;;;12.17;83.04
6216;BME280;3141;49.234;9.326;2023-05-14T03:21:00;99654.38;;;12.22;82.80
6216;BME280;3141;49.234;9.326;2023-05-14T03:22:01;99648.75;;;12.17;82.93
6216;BME280;3141;49.234;9.326;2023-05-14T03:23:02;99647.28;;;12.14;82.39
6216;BME280;3141;49.234;9.326;2023-05-14T03:24:03;99655.25;;;12.14;82.68
6216;BME280;3141;49.234;9.326;2023-05-14T03:25:04;99651.75;;;12.06;83.09
6216;BME280;3141;49.234;9.326;2023-05-14T03:26:06;99651.09;;;12.04;83.41
6216;BME280;3141;49.234;9.326;2023-05-14T03:27:07;99651.75;;;11.98;83.37
6216;BME280;3141;49.234;9.326;2023-05-14T03:28:08;99656.22;;;11.89;84.38
6216;BME280;3141;49.234;9.326;2023-05-14T03:29:09;99661.19;;;11.92;84.75
6216;BME280;3141;49.234;9.326;2023-05-14T03:30:10;99664.84;;;11.99;84.25
6216;BME280;3141;49.234;9.326;2023-05-14T03:31:11;99654.56;;;11.96;84.17
6216;BME280;3141;49.234;9.326;2023-05-14T03:32:12;99659.56;;;11.99;84.01
6216;BME280;3141;49.234;9.326;2023-05-14T03:33:14;99662.84;;;11.93;84.84
6216;BME280;3141;49.234;9.326;2023-05-14T03:34:15;99663.19;;;11.90;85.58
6216;BME280;3141;49.234;9.326;2023-05-14T03:35:16;99665.31;;;11.95;85.58
6216;BME280;3141;49.234;9.326;2023-05-14T03:36:17;99663.19;;;11.98;85.28
6216;BME280;3141;49.234;9.326;2023-05-14T03:37:19;99661.03;;;12.02;84.94
6216;BME280;3141;49.234;9.326;2023-05-14T03:38:20;99657.88;;;11.98;85.05
6216;BME280;3141;49.234;9.326;2023-05-14T03:39:21;99662.84;;;11.93;85.31
6216;BME280;3141;49.234;9.326;2023-05-14T03:40:22;99658.22;;;11.87;85.53
6216;BME280;3141;49.234;9.326;2023-05-14T03:41:23;99662.00;;;11.77;86.28
6216;BME280;3141;49.234;9.326;2023-05-14T03:42:24;99660.69;;;11.89;85.99
6216;BME280;3141;49.234;9.326;2023-05-14T03:43:25;99660.19;;;11.93;85.73
6216;BME280;3141;49.234;9.326;2023-05-14T03:44:26;99663.69;;;11.94;85.45
6216;BME280;3141;49.234;9.326;2023-05-14T03:45:26;99662.34;;;11.98;85.22
6216;BME280;3141;49.234;9.326;2023-05-14T03:46:29;99660.34;;;12.00;85.25
6216;BME280;3141;49.234;9.326;2023-05-14T03:47:30;99661.00;;;12.10;84.62
6216;BME280;3141;49.234;9.326;2023-05-14T03:48:31;99655.09;;;12.08;84.27
6216;BME280;3141;49.234;9.326;2023-05-14T03:49:32;99662.69;;;12.11;84.07
6216;BME280;3141;49.234;9.326;2023-05-14T03:50:33;99658.06;;;12.13;83.71
6216;BME280;3141;49.234;9.326;2023-05-14T03:51:34;99658.53;;;12.08;83.91
6216;BME280;3141;49.234;9.326;2023-05-14T03:52:35;99663.03;;;12.08;84.03
6216;BME280;3141;49.234;9.326;2023-05-14T03:53:36;99664.00;;;12.07;84.47
6216;BME280;3141;49.234;9.326;2023-05-14T03:54:37;99665.84;;;12.14;84.15
6216;BME280;3141;49.234;9.326;2023-05-14T03:55:38;99665.00;;;12.22;84.37
6216;BME280;3141;49.234;9.326;2023-05-14T03:56:39;99665.66;;;12.24;84.29
6216;BME280;3141;49.234;9.326;2023-05-14T03:57:40;99666.81;;;12.29;84.12
6216;BME280;3141;49.234;9.326;2023-05-14T03:58:41;99657.88;;;12.30;84.13
6216;BME280;3141;49.234;9.326;2023-05-14T03:59:42;99663.66;;;12.42;83.33
6216;BME280;3141;49.234;9.326;2023-05-14T04:00:43;99653.69;;;12.52;83.25
6216;BME280;3141;49.234;9.326;2023-05-14T04:01:44;99658.19;;;12.59;83.10
6216;BME280;3141;49.234;9.326;2023-05-14T04:02:45;99657.13;;;12.68;82.75
6216;BME280;3141;49.234;9.326;2023-05-14T04:03:46;99652.31;;;12.72;82.41
6216;BME280;3141;49.234;9.326;2023-05-14T04:04:47;99663.25;;;12.77;82.51
6216;BME280;3141;49.234;9.326;2023-05-14T04:05:50;99658.78;;;12.86;81.76
6216;BME280;3141;49.234;9.326;2023-05-14T04:06:51;99659.22;;;12.89;82.16
6216;BME280;3141;49.234;9.326;2023-05-14T04:07:51;99657.41;;;12.90;81.97
6216;BME280;3141;49.234;9.326;2023-05-14T04:08:52;99660.56;;;12.93;81.77
6216;BME280;3141;49.234;9.326;2023-05-14T04:09:53;99660.88;;;12.98;81.78
6216;BME280;3141;49.234;9.326;2023-05-14T04:10:54;99662.88;;;13.04;81.48
6216;BME280;3141;49.234;9.326;2023-05-14T04:11:55;99658.38;;;12.97;81.03
6216;BME280;3141;49.234;9.326;2023-05-14T04:12:56;99656.94;;;12.86;81.70
6216;BME280;3141;49.234;9.326;2023-05-14T04:13:57;99659.09;;;12.82;81.75
6216;BME280;3141;49.234;9.326;2023-05-14T04:14:58;99659.94;;;12.83;81.66
6216;BME280;3141;49.234;9.326;2023-05-14T04:15:59;99648.81;;;12.79;81.97
6216;BME280;3141;49.234;9.326;2023-05-14T04:17:00;99650.34;;;12.74;82.11
6216;BME280;3141;49.234;9.326;2023-05-14T04:18:00;99650.97;;;12.84;82.04
6216;BME280;3141;49.234;9.326;2023-05-14T04:19:02;99651.28;;;12.89;81.49
6216;BME280;3141;49.234;9.326;2023-05-14T04:20:04;99658.22;;;12.98;81.34
6216;BME280;3141;49.234;9.326;2023-05-14T04:21:06;99658.91;;;12.92;81.09
6216;BME280;3141;49.234;9.326;2023-05-14T04:22:07;99652.91;;;12.98;80.84
6216;BME280;3141;49.234;9.326;2023-05-14T04:23:08;99659.22;;;12.89;81.12
6216;BME280;3141;49.234;9.326;2023-05-14T04:24:09;99654.28;;;12.86;81.33
6216;BME280;3141;49.234;9.326;2023-05-14T04:25:10;99658.59;;;12.87;81.60
6216;BME280;3141;49.234;9.326;2023-05-14T04:26:11;99655.72;;;12.97;81.41
6216;BME280;3141;49.234;9.326;2023-05-14T04:27:19;99651.75;;;13.01;81.41
6216;BME280;3141;49.234;9.326;2023-05-14T04:28:20;99653.56;;;13.00;81.13
6216;BME280;3141;49.234;9.326;2023-05-14T04:29:21;99654.25;;;13.02;81.03
6216;BME280;3141;49.234;9.326;2023-05-14T04:30:22;99646.56;;;13.15;80.49
6216;BME280;3141;49.234;9.326;2023-05-14T04:31:23;99651.22;;;13.13;80.18
6216;BME280;3141;49.234;9.326;2023-05-14T04:32:24;99654.03;;;13.12;80.20
6216;BME280;3141;49.234;9.326;2023-05-14T04:33:25;99655.00;;;13.19;80.49
6216;BME280;3141;49.234;9.326;2023-05-14T04:34:26;99657.16;;;13.23;80.19
6216;BME280;3141;49.234;9.326;2023-05-14T04:35:27;99651.84;;;13.23;80.55
6216;BME280;3141;49.234;9.326;2023-05-14T04:36:28;99663.09;;;13.33;80.16
6216;BME280;3141;49.234;9.326;2023-05-14T04:37:29;99661.69;;;13.45;79.79
6216;BME280;3141;49.234;9.326;2023-05-14T04:38:31;99659.63;;;13.55;79.60
6216;BME280;3141;49.234;9.326;2023-05-14T04:39:32;99663.25;;;13.62;78.97
6216;BME280;3141;49.234;9.326;2023-05-14T04:40:33;99662.09;;;13.65;78.72
6216;BME280;3141;49.234;9.326;2023-05-14T04:41:34;99662.94;;;13.57;78.79
6216;BME280;3141;49.234;9.326;2023-05-14T04:42:35;99660.88;;;13.67;78.53
6216;BME280;3141;49.234;9.326;2023-05-14T04:43:36;99662.19;;;13.71;78.47
6216;BME280;3141;49.234;9.326;2023-05-14T04:44:37;99658.88;;;13.69;78.52
6216;BME280;3141;49.234;9.326;2023-05-14T04:45:38;99665.84;;;13.70;78.33
6216;BME280;3141;49.234;9.326;2023-05-14T04:46:40;99662.19;;;13.71;78.60
6216;BME280;3141;49.234;9.326;2023-05-14T04:47:41;99653.56;;;13.69;78.59
6216;BME280;3141;49.234;9.326;2023-05-14T04:48:42;99663.16;;;13.78;78.31
6216;BME280;3141;49.234;9.326;2023-05-14T04:49:43;99653.34;;;13.79;78.41
6216;BME280;3141;49.234;9.326;2023-05-14T04:50:44;99654.53;;;13.76;78.71
6216;BME280;3141;49.234;9.326;2023-05-14T04:51:45;99653.22;;;13.72;78.80
6216;BME280;3141;49.234;9.326;2023-05-14T04:52:47;99651.69;;;13.78;78.67
6216;BME280;3141;49.234;9.326;2023-05-14T04:53:48;99652.53;;;13.78;78.83
6216;BME280;3141;49.234;9.326;2023-05-14T04:54:49;99658.44;;;13.88;78.78
6216;BME280;3141;49.234;9.326;2023-05-14T04:55:50;99663.50;;;13.98;78.28
6216;BME280;3141;49.234;9.326;2023-05-14T04:56:51;99661.41;;;14.08;77.94
6216;BME280;3141;49.234;9.326;2023-05-14T04:57:52;99661.00;;;14.19;77.01
6216;BME280;3141;49.234;9.326;2023-05-14T04:58:53;99657.50;;;14.27;76.83
6216;BME280;3141;49.234;9.326;2023-05-14T04:59:54;99661.00;;;14.42;76.21
6216;BME280;3141;49.234;9.326;2023-05-14T05:00:55;99662.31;;;14.46;76.17
6216;BME280;3141;49.234;9.326;2023-05-14T05:01:56;99662.59;;;14.51;75.91
6216;BME280;3141;49.234;9.326;2023-05-14T05:02:57;99664.59;;;14.49;76.28
6216;BME280;3141;49.234;9.326;2023-05-14T05:03:58;99662.63;;;14.43;76.32
6216;BME280;3141;49.234;9.326;2023-05-14T05:04:59;99658.25;;;14.35;76.54
6216;BME280;3141;49.234;9.326;2023-05-14T05:06:00;99661.72;;;14.36;76.50
6216;BME280;3141;49.234;9.326;2023-05-14T05:07:01;99657.59;;;14.33;76.71
6216;BME280;3141;49.234;9.326;2023-05-14T05:08:02;99661.41;;;14.31;77.02
6216;BME280;3141;49.234;9.326;2023-05-14T05:09:03;99661.47;;;14.45;76.43
6216;BME280;3141;49.234;9.326;2023-05-14T05:10:04;99658.25;;;14.50;76.16
6216;BME280;3141;49.234;9.326;2023-05-14T05:11:05;99659.84;;;14.59;75.96
6216;BME280;3141;49.234;9.326;2023-05-14T05:12:07;99659.75;;;14.52;76.29
6216;BME280;3141;49.234;9.326;2023-05-14T05:13:08;99659.66;;;14.46;76.33
6216;BME280;3141;49.234;9.326;2023-05-14T05:14:09;99664.03;;;14.53;76.11
6216;BME280;3141;49.234;9.326;2023-05-14T05:15:10;99664.97;;;14.60;76.03
6216;BME280;3141;49.234;9.326;2023-05-14T05:16:11;99658.19;;;14.72;75.66
6216;BME280;3141;49.234;9.326;2023-05-14T05:17:12;99658.00;;;14.74;75.58
6216;BME280;3141;49.234;9.326;2023-05-14T05:18:13;99658.75;;;14.68;75.52
6216;BME280;3141;49.234;9.326;2023-05-14T05:19:14;99654.88;;;14.70;75.29
6216;BME280;3141;49.234;9.326;2023-05-14T05:20:15;99656.09;;;14.68;74.52
6216;BME280;3141;49.234;9.326;2023-05-14T05:21:15;99656.38;;;14.73;74.76
6216;BME280;3141;49.234;9.326;2023-05-14T05:22:17;99660.19;;;14.70;74.80
6216;BME280;3141;49.234;9.326;2023-05-14T05:23:19;99655.91;;;14.69;74.80
6216;BME280;3141;49.234;9.326;2023-05-14T05:24:20;99660.38;;;14.69;75.00
6216;BME280;3141;49.234;9.326;2023-05-14T05:25:21;99658.28;;;14.79;74.60
6216;BME280;3141;49.234;9.326;2023-05-14T05:26:24;99649.22;;;14.73;74.88
6216;BME280;3141;49.234;9.326;2023-05-14T05:27:26;99653.53;;;14.60;74.77
6216;BME280;3141;49.234;9.326;2023-05-14T05:28:27;99655.53;;;14.58;74.84
6216;BME280;3141;49.234;9.326;2023-05-14T05:29:28;99658.91;;;14.52;75.80
6216;BME280;3141;49.234;9.326;2023-05-14T05:30:29;99659.56;;;14.54;75.94
6216;BME280;3141;49.234;9.326;2023-05-14T05:31:30;99655.88;;;14.55;75.85
6216;BME280;3141;49.234;9.326;2023-05-14T05:32:31;99648.81;;;14.62;76.06
6216;BME280;3141;49.234;9.326;2023-05-14T05:33:33;99653.16;;;14.63;75.89
6216;BME280;3141;49.234;9.326;2023-05-14T05:34:34;99651.13;;;14.65;75.93
6216;BME280;3141;49.234;9.326;2023-05-14T05:35:36;99648.63;;;14.63;76.02
6216;BME280;3141;49.234;9.326;2023-05-14T05:36:37;99647.47;;;14.66;75.99
6216;BME280;3141;49.234;9.326;2023-05-14T05:37:38;99649.94;;;14.67;75.81
6216;BME280;3141;49.234;9.326;2023-05-14T05:38:39;99657.75;;;14.83;75.77
6216;BME280;3141;49.234;9.326;2023-05-14T05:39:40;99654.72;;;14.86;75.59
6216;BME280;3141;49.234;9.326;2023-05-14T05:40:41;99657.38;;;14.86;75.55